sensor_id;sensor_type;location;lat;lon;timestamp;temperature;humidity
22787;DHT22;63134;52.020;4.714;2023-04-03T00:00:15;5.10;83.00
22787;DHT22;63134;52.020;4.714;2023-04-03T00:03:01;5.00;82.80
22787;DHT22;63134;52.020;4.714;2023-04-03T00:05:46;5.00;82.70
22787;DHT22;63134;52.020;4.714;2023-04-03T00:08:32;5.00;82.70
22787;DHT22;63134;52.020;4.714;2023-04-03T00:11:21;5.00;82.70
22787;DHT22;63134;52.020;4.714;2023-04-03T00:14:07;5.00;82.50
22787;DHT22;63134;52.020;4.714;2023-04-03T00:16:53;5.00;82.50
22787;DHT22;63134;52.020;4.714;2023-04-03T00:19:39;5.00;82.50
22787;DHT22;63134;52.020;4.714;2023-04-03T00:22:24;5.00;82.30
22787;DHT22;63134;52.020;4.714;2023-04-03T00:25:12;4.90;82.30
22787;DHT22;63134;52.020;4.714;2023-04-03T00:27:58;5.00;82.10
22787;DHT22;63134;52.020;4.714;2023-04-03T00:30:43;4.90;81.90
22787;DHT22;63134;52.020;4.714;2023-04-03T00:33:29;4.90;81.80
22787;DHT22;63134;52.020;4.714;2023-04-03T00:36:14;4.90;81.40
22787;DHT22;63134;52.020;4.714;2023-04-03T00:39:00;4.80;81.50
22787;DHT22;63134;52.020;4.714;2023-04-03T00:41:45;4.90;81.50
22787;DHT22;63134;52.020;4.714;2023-04-03T00:47:24;4.80;81.10
22787;DHT22;63134;52.020;4.714;2023-04-03T00:50:10;4.80;81.10
22787;DHT22;63134;52.020;4.714;2023-04-03T00:52:56;4.70;81.00
22787;DHT22;63134;52.020;4.714;2023-04-03T00:55:43;4.70;81.20
22787;DHT22;63134;52.020;4.714;2023-04-03T00:58:40;4.80;81.30
22787;DHT22;63134;52.020;4.714;2023-04-03T01:01:28;4.80;81.20
22787;DHT22;63134;52.020;4.714;2023-04-03T01:04:37;4.70;81.00
22787;DHT22;63134;52.020;4.714;2023-04-03T01:07:27;4.70;81.10
22787;DHT22;63134;52.020;4.714;2023-04-03T01:10:15;4.70;81.20
22787;DHT22;63134;52.020;4.714;2023-04-03T01:13:01;4.70;81.20
22787;DHT22;63134;52.020;4.714;2023-04-03T01:15:47;4.60;81.00
22787;DHT22;63134;52.020;4.714;2023-04-03T01:18:33;4.60;81.00
22787;DHT22;63134;52.020;4.714;2023-04-03T01:24:22;4.60;81.10
22787;DHT22;63134;52.020;4.714;2023-04-03T01:27:11;4.50;81.20
22787;DHT22;63134;52.020;4.714;2023-04-03T01:29:58;4.50;81.20
22787;DHT22;63134;52.020;4.714;2023-04-03T01:32:43;4.50;81.20
22787;DHT22;63134;52.020;4.714;2023-04-03T01:35:30;4.40;81.50
22787;DHT22;63134;52.020;4.714;2023-04-03T01:38:16;4.40;81.40
22787;DHT22;63134;52.020;4.714;2023-04-03T01:41:01;4.40;81.60
22787;DHT22;63134;52.020;4.714;2023-04-03T01:43:48;4.30;81.70
22787;DHT22;63134;52.020;4.714;2023-04-03T01:46:34;4.30;81.80
22787;DHT22;63134;52.020;4.714;2023-04-03T01:49:23;4.20;81.80
22787;DHT22;63134;52.020;4.714;2023-04-03T01:52:08;4.20;82.00
22787;DHT22;63134;52.020;4.714;2023-04-03T01:54:54;4.20;82.10
22787;DHT22;63134;52.020;4.714;2023-04-03T01:57:40;4.10;82.10
22787;DHT22;63134;52.020;4.714;2023-04-03T02:00:31;4.20;82.50
22787;DHT22;63134;52.020;4.714;2023-04-03T02:03:17;4.10;83.10
22787;DHT22;63134;52.020;4.714;2023-04-03T02:06:04;4.00;82.20
22787;DHT22;63134;52.020;4.714;2023-04-03T02:08:50;4.00;82.20
22787;DHT22;63134;52.020;4.714;2023-04-03T02:11:38;4.00;82.60
22787;DHT22;63134;52.020;4.714;2023-04-03T02:14:27;4.00;82.50
22787;DHT22;63134;52.020;4.714;2023-04-03T02:17:15;3.90;82.20
22787;DHT22;63134;52.020;4.714;2023-04-03T02:20:00;3.90;82.70
22787;DHT22;63134;52.020;4.714;2023-04-03T02:22:46;3.90;82.60
22787;DHT22;63134;52.020;4.714;2023-04-03T02:25:34;3.80;83.00
22787;DHT22;63134;52.020;4.714;2023-04-03T02:28:22;3.80;83.30
22787;DHT22;63134;52.020;4.714;2023-04-03T02:31:09;3.80;83.70
22787;DHT22;63134;52.020;4.714;2023-04-03T02:33:57;3.80;83.80
22787;DHT22;63134;52.020;4.714;2023-04-03T02:36:43;3.80;83.70
22787;DHT22;63134;52.020;4.714;2023-04-03T02:39:30;3.70;83.70
22787;DHT22;63134;52.020;4.714;2023-04-03T02:42:17;3.70;83.90
22787;DHT22;63134;52.020;4.714;2023-04-03T02:45:03;3.70;83.90
22787;DHT22;63134;52.020;4.714;2023-04-03T02:47:52;3.70;84.20
22787;DHT22;63134;52.020;4.714;2023-04-03T02:50:37;3.70;84.30
22787;DHT22;63134;52.020;4.714;2023-04-03T02:53:23;3.60;84.40
22787;DHT22;63134;52.020;4.714;2023-04-03T02:56:09;3.60;84.40
22787;DHT22;63134;52.020;4.714;2023-04-03T02:58:56;3.60;84.70
22787;DHT22;63134;52.020;4.714;2023-04-03T03:01:42;3.50;84.70
22787;DHT22;63134;52.020;4.714;2023-04-03T03:04:28;3.50;83.70
22787;DHT22;63134;52.020;4.714;2023-04-03T03:07:17;3.50;84.50
22787;DHT22;63134;52.020;4.714;2023-04-03T03:10:06;3.50;84.70
22787;DHT22;63134;52.020;4.714;2023-04-03T03:12:52;3.50;85.10
22787;DHT22;63134;52.020;4.714;2023-04-03T03:15:38;3.40;85.20
22787;DHT22;63134;52.020;4.714;2023-04-03T03:18:24;3.40;85.40
22787;DHT22;63134;52.020;4.714;2023-04-03T03:21:10;3.40;85.60
22787;DHT22;63134;52.020;4.714;2023-04-03T03:23:56;3.40;85.70
22787;DHT22;63134;52.020;4.714;2023-04-03T03:26:42;3.40;86.00
22787;DHT22;63134;52.020;4.714;2023-04-03T03:29:27;3.40;86.10
22787;DHT22;63134;52.020;4.714;2023-04-03T03:32:13;3.40;86.10
22787;DHT22;63134;52.020;4.714;2023-04-03T03:34:59;3.30;86.20
22787;DHT22;63134;52.020;4.714;2023-04-03T03:37:44;3.30;86.00
22787;DHT22;63134;52.020;4.714;2023-04-03T03:40:30;3.30;86.20
22787;DHT22;63134;52.020;4.714;2023-04-03T03:43:16;3.30;86.50
22787;DHT22;63134;52.020;4.714;2023-04-03T03:46:04;3.30;86.40
22787;DHT22;63134;52.020;4.714;2023-04-03T03:48:49;3.30;86.70
22787;DHT22;63134;52.020;4.714;2023-04-03T03:51:35;3.20;86.60
22787;DHT22;63134;52.020;4.714;2023-04-03T03:54:20;3.20;86.70
22787;DHT22;63134;52.020;4.714;2023-04-03T03:57:06;3.20;87.20
22787;DHT22;63134;52.020;4.714;2023-04-03T03:59:52;3.20;87.20
22787;DHT22;63134;52.020;4.714;2023-04-03T04:02:38;3.20;87.20
22787;DHT22;63134;52.020;4.714;2023-04-03T04:05:23;3.20;87.20
22787;DHT22;63134;52.020;4.714;2023-04-03T04:08:11;3.10;87.40
22787;DHT22;63134;52.020;4.714;2023-04-03T04:10:57;3.10;87.40
22787;DHT22;63134;52.020;4.714;2023-04-03T04:13:42;3.10;87.60
22787;DHT22;63134;52.020;4.714;2023-04-03T04:16:29;3.10;87.60
22787;DHT22;63134;52.020;4.714;2023-04-03T04:19:19;3.10;87.60
22787;DHT22;63134;52.020;4.714;2023-04-03T04:22:04;3.10;87.50
22787;DHT22;63134;52.020;4.714;2023-04-03T04:24:50;3.10;87.70
22787;DHT22;63134;52.020;4.714;2023-04-03T04:27:36;3.00;87.80
22787;DHT22;63134;52.020;4.714;2023-04-03T04:30:23;3.00;88.20
22787;DHT22;63134;52.020;4.714;2023-04-03T04:33:12;3.00;88.20
22787;DHT22;63134;52.020;4.714;2023-04-03T04:36:00;3.00;88.30
22787;DHT22;63134;52.020;4.714;2023-04-03T04:38:49;3.00;88.40
22787;DHT22;63134;52.020;4.714;2023-04-03T04:41:39;3.00;88.60
22787;DHT22;63134;52.020;4.714;2023-04-03T04:44:26;3.00;88.70
22787;DHT22;63134;52.020;4.714;2023-04-03T04:47:11;3.00;88.50
22787;DHT22;63134;52.020;4.714;2023-04-03T04:49:58;3.00;88.70
22787;DHT22;63134;52.020;4.714;2023-04-03T04:52:44;2.90;88.40
22787;DHT22;63134;52.020;4.714;2023-04-03T04:55:30;2.90;89.00
22787;DHT22;63134;52.020;4.714;2023-04-03T04:58:16;2.90;89.20
22787;DHT22;63134;52.020;4.714;2023-04-03T05:01:07;2.90;89.10
22787;DHT22;63134;52.020;4.714;2023-04-03T05:03:57;2.90;89.40
22787;DHT22;63134;52.020;4.714;2023-04-03T05:06:46;2.90;89.70
22787;DHT22;63134;52.020;4.714;2023-04-03T05:09:36;2.90;89.60
22787;DHT22;63134;52.020;4.714;2023-04-03T05:12:21;2.80;89.30
22787;DHT22;63134;52.020;4.714;2023-04-03T05:15:12;2.80;89.80
22787;DHT22;63134;52.020;4.714;2023-04-03T05:17:59;2.80;90.00
22787;DHT22;63134;52.020;4.714;2023-04-03T05:20:45;2.90;90.00
22787;DHT22;63134;52.020;4.714;2023-04-03T05:23:33;2.80;89.90
22787;DHT22;63134;52.020;4.714;2023-04-03T05:26:20;2.80;89.90
22787;DHT22;63134;52.020;4.714;2023-04-03T05:29:07;2.80;90.00
22787;DHT22;63134;52.020;4.714;2023-04-03T05:31:53;2.80;90.10
22787;DHT22;63134;52.020;4.714;2023-04-03T05:34:39;2.90;90.40
22787;DHT22;63134;52.020;4.714;2023-04-03T05:37:25;2.90;90.50
22787;DHT22;63134;52.020;4.714;2023-04-03T05:40:12;2.90;90.40
22787;DHT22;63134;52.020;4.714;2023-04-03T05:43:01;2.90;90.20
22787;DHT22;63134;52.020;4.714;2023-04-03T05:45:51;2.90;90.30
22787;DHT22;63134;52.020;4.714;2023-04-03T05:48:39;3.00;90.50
22787;DHT22;63134;52.020;4.714;2023-04-03T05:51:33;3.00;90.50
22787;DHT22;63134;52.020;4.714;2023-04-03T05:54:29;3.10;90.60
22787;DHT22;63134;52.020;4.714;2023-04-03T05:57:31;3.10;90.50
22787;DHT22;63134;52.020;4.714;2023-04-03T06:00:17;3.10;90.40
22787;DHT22;63134;52.020;4.714;2023-04-03T06:03:13;3.10;90.50
22787;DHT22;63134;52.020;4.714;2023-04-03T06:05:59;3.10;90.50
22787;DHT22;63134;52.020;4.714;2023-04-03T06:08:44;3.10;90.50
22787;DHT22;63134;52.020;4.714;2023-04-03T06:11:29;3.20;90.60
22787;DHT22;63134;52.020;4.714;2023-04-03T06:14:15;3.20;90.70
22787;DHT22;63134;52.020;4.714;2023-04-03T06:17:02;3.20;90.90
22787;DHT22;63134;52.020;4.714;2023-04-03T06:19:50;3.30;90.70
22787;DHT22;63134;52.020;4.714;2023-04-03T06:22:39;3.30;90.70
22787;DHT22;63134;52.020;4.714;2023-04-03T06:25:25;3.40;90.80
22787;DHT22;63134;52.020;4.714;2023-04-03T06:28:11;3.40;90.70
22787;DHT22;63134;52.020;4.714;2023-04-03T06:31:00;3.50;90.90
22787;DHT22;63134;52.020;4.714;2023-04-03T06:33:49;3.50;90.90
22787;DHT22;63134;52.020;4.714;2023-04-03T06:36:36;3.60;90.90
22787;DHT22;63134;52.020;4.714;2023-04-03T06:39:22;3.70;90.90
22787;DHT22;63134;52.020;4.714;2023-04-03T06:42:08;3.80;90.90
22787;DHT22;63134;52.020;4.714;2023-04-03T06:44:58;3.80;90.80
22787;DHT22;63134;52.020;4.714;2023-04-03T06:47:43;3.90;90.80
22787;DHT22;63134;52.020;4.714;2023-04-03T06:50:30;3.90;90.80
22787;DHT22;63134;52.020;4.714;2023-04-03T06:53:16;4.00;90.70
22787;DHT22;63134;52.020;4.714;2023-04-03T06:56:02;4.00;90.60
22787;DHT22;63134;52.020;4.714;2023-04-03T06:58:48;4.00;90.70
22787;DHT22;63134;52.020;4.714;2023-04-03T07:01:34;4.00;90.60
22787;DHT22;63134;52.020;4.714;2023-04-03T07:04:19;4.10;90.60
22787;DHT22;63134;52.020;4.714;2023-04-03T07:07:07;4.10;90.50
22787;DHT22;63134;52.020;4.714;2023-04-03T07:09:53;4.20;90.50
22787;DHT22;63134;52.020;4.714;2023-04-03T07:12:39;4.20;90.40
22787;DHT22;63134;52.020;4.714;2023-04-03T07:15:24;4.20;90.40
22787;DHT22;63134;52.020;4.714;2023-04-03T07:18:10;4.30;90.30
22787;DHT22;63134;52.020;4.714;2023-04-03T07:20:55;4.30;90.30
22787;DHT22;63134;52.020;4.714;2023-04-03T07:23:41;4.30;90.20
22787;DHT22;63134;52.020;4.714;2023-04-03T07:26:26;4.40;90.10
22787;DHT22;63134;52.020;4.714;2023-04-03T07:29:12;4.40;90.10
22787;DHT22;63134;52.020;4.714;2023-04-03T07:31:58;4.50;90.10
22787;DHT22;63134;52.020;4.714;2023-04-03T07:34:43;4.60;90.00
22787;DHT22;63134;52.020;4.714;2023-04-03T07:37:29;4.60;89.50
22787;DHT22;63134;52.020;4.714;2023-04-03T07:40:14;4.60;89.00
22787;DHT22;63134;52.020;4.714;2023-04-03T07:43:03;4.70;89.00
22787;DHT22;63134;52.020;4.714;2023-04-03T07:45:51;4.70;89.00
22787;DHT22;63134;52.020;4.714;2023-04-03T07:48:37;4.80;89.00
22787;DHT22;63134;52.020;4.714;2023-04-03T07:51:22;4.90;88.70
22787;DHT22;63134;52.020;4.714;2023-04-03T07:54:09;4.90;88.50
22787;DHT22;63134;52.020;4.714;2023-04-03T07:56:55;5.00;88.30
22787;DHT22;63134;52.020;4.714;2023-04-03T07:59:42;5.10;88.00
22787;DHT22;63134;52.020;4.714;2023-04-03T08:02:28;5.10;87.10
22787;DHT22;63134;52.020;4.714;2023-04-03T08:05:13;5.10;87.00
22787;DHT22;63134;52.020;4.714;2023-04-03T08:08:01;5.20;87.00
22787;DHT22;63134;52.020;4.714;2023-04-03T08:10:52;5.20;86.60
22787;DHT22;63134;52.020;4.714;2023-04-03T08:13:38;5.30;86.30
22787;DHT22;63134;52.020;4.714;2023-04-03T08:16:24;5.30;85.90
22787;DHT22;63134;52.020;4.714;2023-04-03T08:19:14;5.40;85.60
22787;DHT22;63134;52.020;4.714;2023-04-03T08:22:19;5.50;84.90
22787;DHT22;63134;52.020;4.714;2023-04-03T08:25:05;5.50;84.40
22787;DHT22;63134;52.020;4.714;2023-04-03T08:27:50;5.60;83.60
22787;DHT22;63134;52.020;4.714;2023-04-03T08:30:41;5.70;82.70
22787;DHT22;63134;52.020;4.714;2023-04-03T08:33:27;5.80;82.30
22787;DHT22;63134;52.020;4.714;2023-04-03T08:36:22;5.80;81.90
22787;DHT22;63134;52.020;4.714;2023-04-03T08:39:08;5.90;81.60
22787;DHT22;63134;52.020;4.714;2023-04-03T08:41:58;6.00;81.30
22787;DHT22;63134;52.020;4.714;2023-04-03T08:44:50;6.10;81.50
22787;DHT22;63134;52.020;4.714;2023-04-03T08:47:43;6.10;80.40
22787;DHT22;63134;52.020;4.714;2023-04-03T08:50:38;6.20;79.00
22787;DHT22;63134;52.020;4.714;2023-04-03T08:53:31;6.30;77.60
22787;DHT22;63134;52.020;4.714;2023-04-03T08:56:21;6.30;76.80
22787;DHT22;63134;52.020;4.714;2023-04-03T08:59:26;6.40;76.00
22787;DHT22;63134;52.020;4.714;2023-04-03T09:05:18;6.60;71.70
22787;DHT22;63134;52.020;4.714;2023-04-03T09:11:41;6.70;70.60
22787;DHT22;63134;52.020;4.714;2023-04-03T09:17:44;6.90;68.10
22787;DHT22;63134;52.020;4.714;2023-04-03T09:23:50;7.00;66.00
22787;DHT22;63134;52.020;4.714;2023-04-03T09:26:57;7.00;64.30
22787;DHT22;63134;52.020;4.714;2023-04-03T09:29:45;7.10;64.50
22787;DHT22;63134;52.020;4.714;2023-04-03T09:32:33;7.10;63.50
22787;DHT22;63134;52.020;4.714;2023-04-03T09:35:29;7.20;63.40
22787;DHT22;63134;52.020;4.714;2023-04-03T09:38:32;7.30;61.30
22787;DHT22;63134;52.020;4.714;2023-04-03T09:41:18;7.40;58.20
22787;DHT22;63134;52.020;4.714;2023-04-03T09:44:21;7.50;57.20
22787;DHT22;63134;52.020;4.714;2023-04-03T09:47:28;7.50;57.20
22787;DHT22;63134;52.020;4.714;2023-04-03T09:50:21;7.50;56.90
22787;DHT22;63134;52.020;4.714;2023-04-03T09:53:29;7.50;56.30
22787;DHT22;63134;52.020;4.714;2023-04-03T10:02:28;7.80;54.40
22787;DHT22;63134;52.020;4.714;2023-04-03T10:11:10;8.00;51.30
22787;DHT22;63134;52.020;4.714;2023-04-03T10:13:58;8.10;51.40
22787;DHT22;63134;52.020;4.714;2023-04-03T10:16:51;8.10;51.70
22787;DHT22;63134;52.020;4.714;2023-04-03T10:19:45;8.10;51.70
22787;DHT22;63134;52.020;4.714;2023-04-03T10:25:58;8.30;48.40
22787;DHT22;63134;52.020;4.714;2023-04-03T10:28:56;8.40;47.90
22787;DHT22;63134;52.020;4.714;2023-04-03T10:34:48;8.60;46.80
22787;DHT22;63134;52.020;4.714;2023-04-03T10:38:20;8.70;46.50
22787;DHT22;63134;52.020;4.714;2023-04-03T10:41:17;8.80;46.10
22787;DHT22;63134;52.020;4.714;2023-04-03T10:56:31;9.20;45.40
22787;DHT22;63134;52.020;4.714;2023-04-03T10:59:32;9.40;45.50
22787;DHT22;63134;52.020;4.714;2023-04-03T11:08:17;10.00;44.40
22787;DHT22;63134;52.020;4.714;2023-04-03T11:11:14;10.20;43.80
22787;DHT22;63134;52.020;4.714;2023-04-03T11:20:14;11.10;42.40
22787;DHT22;63134;52.020;4.714;2023-04-03T11:23:19;11.50;41.30
22787;DHT22;63134;52.020;4.714;2023-04-03T11:26:15;12.00;40.00
22787;DHT22;63134;52.020;4.714;2023-04-03T11:29:05;12.60;36.70
22787;DHT22;63134;52.020;4.714;2023-04-03T11:32:27;13.30;36.50
22787;DHT22;63134;52.020;4.714;2023-04-03T11:35:18;14.20;34.30
22787;DHT22;63134;52.020;4.714;2023-04-03T11:38:05;15.00;34.00
22787;DHT22;63134;52.020;4.714;2023-04-03T11:40:52;16.00;33.10
22787;DHT22;63134;52.020;4.714;2023-04-03T11:43:42;16.80;30.60
22787;DHT22;63134;52.020;4.714;2023-04-03T11:46:54;17.60;29.60
22787;DHT22;63134;52.020;4.714;2023-04-03T12:01:11;21.80;23.70
22787;DHT22;63134;52.020;4.714;2023-04-03T12:04:19;22.20;22.30
22787;DHT22;63134;52.020;4.714;2023-04-03T12:07:15;22.90;21.80
22787;DHT22;63134;52.020;4.714;2023-04-03T12:10:15;23.50;20.70
22787;DHT22;63134;52.020;4.714;2023-04-03T12:13:16;24.00;20.60
22787;DHT22;63134;52.020;4.714;2023-04-03T12:16:05;24.70;19.70
22787;DHT22;63134;52.020;4.714;2023-04-03T12:24:37;26.70;19.00
22787;DHT22;63134;52.020;4.714;2023-04-03T12:27:33;26.90;17.70
22787;DHT22;63134;52.020;4.714;2023-04-03T12:30:21;27.10;17.90
22787;DHT22;63134;52.020;4.714;2023-04-03T12:36:18;28.60;18.30
22787;DHT22;63134;52.020;4.714;2023-04-03T12:39:43;28.70;17.50
22787;DHT22;63134;52.020;4.714;2023-04-03T12:42:47;29.10;17.90
22787;DHT22;63134;52.020;4.714;2023-04-03T12:45:46;29.90;17.50
22787;DHT22;63134;52.020;4.714;2023-04-03T12:51:37;30.60;17.10
22787;DHT22;63134;52.020;4.714;2023-04-03T12:54:30;31.00;16.20
22787;DHT22;63134;52.020;4.714;2023-04-03T12:57:24;31.50;16.00
22787;DHT22;63134;52.020;4.714;2023-04-03T13:00:28;31.80;16.00
22787;DHT22;63134;52.020;4.714;2023-04-03T13:03:25;32.10;15.70
22787;DHT22;63134;52.020;4.714;2023-04-03T13:06:43;32.50;15.50
22787;DHT22;63134;52.020;4.714;2023-04-03T13:09:31;32.60;15.10
22787;DHT22;63134;52.020;4.714;2023-04-03T13:12:17;32.60;15.10
22787;DHT22;63134;52.020;4.714;2023-04-03T13:15:17;33.00;14.90
22787;DHT22;63134;52.020;4.714;2023-04-03T13:18:03;33.30;14.80
22787;DHT22;63134;52.020;4.714;2023-04-03T13:20:49;33.90;14.80
22787;DHT22;63134;52.020;4.714;2023-04-03T13:23:38;34.10;14.50
22787;DHT22;63134;52.020;4.714;2023-04-03T13:26:28;34.50;14.60
22787;DHT22;63134;52.020;4.714;2023-04-03T13:29:23;34.80;14.30
22787;DHT22;63134;52.020;4.714;2023-04-03T13:32:25;35.00;14.00
22787;DHT22;63134;52.020;4.714;2023-04-03T13:35:40;34.80;13.50
22787;DHT22;63134;52.020;4.714;2023-04-03T13:38:29;34.80;13.80
22787;DHT22;63134;52.020;4.714;2023-04-03T13:41:36;34.50;13.40
22787;DHT22;63134;52.020;4.714;2023-04-03T13:53:12;34.90;13.40
22787;DHT22;63134;52.020;4.714;2023-04-03T13:56:00;35.30;13.50
22787;DHT22;63134;52.020;4.714;2023-04-03T14:01:51;36.20;13.30
22787;DHT22;63134;52.020;4.714;2023-04-03T14:07:30;36.40;13.00
22787;DHT22;63134;52.020;4.714;2023-04-03T14:10:17;36.30;12.80
22787;DHT22;63134;52.020;4.714;2023-04-03T14:13:02;36.40;12.70
22787;DHT22;63134;52.020;4.714;2023-04-03T14:15:49;37.10;12.90
22787;DHT22;63134;52.020;4.714;2023-04-03T14:18:35;37.70;12.70
22787;DHT22;63134;52.020;4.714;2023-04-03T14:21:22;37.90;12.60
22787;DHT22;63134;52.020;4.714;2023-04-03T14:24:07;38.10;12.30
22787;DHT22;63134;52.020;4.714;2023-04-03T14:26:54;37.70;12.30
22787;DHT22;63134;52.020;4.714;2023-04-03T14:29:40;37.60;12.30
22787;DHT22;63134;52.020;4.714;2023-04-03T14:32:27;37.80;12.30
22787;DHT22;63134;52.020;4.714;2023-04-03T14:35:14;38.10;12.50
22787;DHT22;63134;52.020;4.714;2023-04-03T14:38:01;38.60;12.40
22787;DHT22;63134;52.020;4.714;2023-04-03T14:40:47;38.90;12.00
22787;DHT22;63134;52.020;4.714;2023-04-03T14:43:33;38.80;11.50
22787;DHT22;63134;52.020;4.714;2023-04-03T14:46:24;38.60;11.50
22787;DHT22;63134;52.020;4.714;2023-04-03T14:49:28;38.30;11.70
22787;DHT22;63134;52.020;4.714;2023-04-03T14:52:35;38.30;11.80
22787;DHT22;63134;52.020;4.714;2023-04-03T14:55:23;38.00;11.50
22787;DHT22;63134;52.020;4.714;2023-04-03T14:58:15;38.10;11.80
22787;DHT22;63134;52.020;4.714;2023-04-03T15:01:02;38.10;11.60
22787;DHT22;63134;52.020;4.714;2023-04-03T15:03:48;37.70;11.80
22787;DHT22;63134;52.020;4.714;2023-04-03T15:06:34;38.10;12.10
22787;DHT22;63134;52.020;4.714;2023-04-03T15:09:20;37.90;11.50
22787;DHT22;63134;52.020;4.714;2023-04-03T15:12:08;37.70;11.80
22787;DHT22;63134;52.020;4.714;2023-04-03T15:14:54;37.60;12.00
22787;DHT22;63134;52.020;4.714;2023-04-03T15:17:51;37.50;12.00
22787;DHT22;63134;52.020;4.714;2023-04-03T15:20:39;38.00;12.00
22787;DHT22;63134;52.020;4.714;2023-04-03T15:23:26;37.80;11.60
22787;DHT22;63134;52.020;4.714;2023-04-03T15:26:13;37.20;11.40
22787;DHT22;63134;52.020;4.714;2023-04-03T15:28:59;36.50;12.00
22787;DHT22;63134;52.020;4.714;2023-04-03T15:31:44;35.80;11.90
22787;DHT22;63134;52.020;4.714;2023-04-03T15:34:30;35.60;12.20
22787;DHT22;63134;52.020;4.714;2023-04-03T15:37:16;35.60;12.50
22787;DHT22;63134;52.020;4.714;2023-04-03T15:40:06;36.30;12.60
22787;DHT22;63134;52.020;4.714;2023-04-03T15:42:51;36.60;12.40
22787;DHT22;63134;52.020;4.714;2023-04-03T15:45:40;36.30;12.20
22787;DHT22;63134;52.020;4.714;2023-04-03T15:48:27;35.60;12.40
22787;DHT22;63134;52.020;4.714;2023-04-03T15:51:12;35.60;12.40
22787;DHT22;63134;52.020;4.714;2023-04-03T15:53:58;35.30;12.40
22787;DHT22;63134;52.020;4.714;2023-04-03T15:56:44;35.10;12.50
22787;DHT22;63134;52.020;4.714;2023-04-03T15:59:29;34.60;12.80
22787;DHT22;63134;52.020;4.714;2023-04-03T16:02:17;34.30;12.60
22787;DHT22;63134;52.020;4.714;2023-04-03T16:05:02;34.10;12.70
22787;DHT22;63134;52.020;4.714;2023-04-03T16:07:57;33.80;12.80
22787;DHT22;63134;52.020;4.714;2023-04-03T16:10:45;33.80;13.20
22787;DHT22;63134;52.020;4.714;2023-04-03T16:13:31;33.90;13.10
22787;DHT22;63134;52.020;4.714;2023-04-03T16:16:19;34.00;13.10
22787;DHT22;63134;52.020;4.714;2023-04-03T16:19:05;34.30;13.10
22787;DHT22;63134;52.020;4.714;2023-04-03T16:21:53;34.20;12.90
22787;DHT22;63134;52.020;4.714;2023-04-03T16:24:38;34.20;13.30
22787;DHT22;63134;52.020;4.714;2023-04-03T16:27:24;34.40;13.20
22787;DHT22;63134;52.020;4.714;2023-04-03T16:30:12;34.30;13.20
22787;DHT22;63134;52.020;4.714;2023-04-03T16:32:58;34.10;13.10
22787;DHT22;63134;52.020;4.714;2023-04-03T16:35:43;34.20;13.30
22787;DHT22;63134;52.020;4.714;2023-04-03T16:38:30;34.30;13.40
22787;DHT22;63134;52.020;4.714;2023-04-03T16:41:15;34.40;13.20
22787;DHT22;63134;52.020;4.714;2023-04-03T16:44:01;34.10;13.40
22787;DHT22;63134;52.020;4.714;2023-04-03T16:46:46;33.80;13.70
22787;DHT22;63134;52.020;4.714;2023-04-03T16:49:33;33.60;13.70
22787;DHT22;63134;52.020;4.714;2023-04-03T16:52:22;33.30;13.90
22787;DHT22;63134;52.020;4.714;2023-04-03T16:55:08;32.90;14.10
22787;DHT22;63134;52.020;4.714;2023-04-03T16:57:53;32.60;14.30
22787;DHT22;63134;52.020;4.714;2023-04-03T17:00:39;32.60;14.50
22787;DHT22;63134;52.020;4.714;2023-04-03T17:03:25;32.40;14.50
22787;DHT22;63134;52.020;4.714;2023-04-03T17:06:13;31.70;14.80
22787;DHT22;63134;52.020;4.714;2023-04-03T17:09:01;31.10;15.30
22787;DHT22;63134;52.020;4.714;2023-04-03T17:11:47;30.60;15.60
22787;DHT22;63134;52.020;4.714;2023-04-03T17:14:33;30.20;15.80
22787;DHT22;63134;52.020;4.714;2023-04-03T17:17:22;29.90;15.90
22787;DHT22;63134;52.020;4.714;2023-04-03T17:20:09;29.20;16.30
22787;DHT22;63134;52.020;4.714;2023-04-03T17:22:55;28.90;16.80
22787;DHT22;63134;52.020;4.714;2023-04-03T17:25:40;29.30;16.60
22787;DHT22;63134;52.020;4.714;2023-04-03T17:28:26;29.10;16.80
22787;DHT22;63134;52.020;4.714;2023-04-03T17:31:14;28.90;16.80
22787;DHT22;63134;52.020;4.714;2023-04-03T17:34:00;28.90;16.80
22787;DHT22;63134;52.020;4.714;2023-04-03T17:36:46;28.70;17.00
22787;DHT22;63134;52.020;4.714;2023-04-03T17:39:35;28.40;17.20
22787;DHT22;63134;52.020;4.714;2023-04-03T17:42:21;27.70;17.70
22787;DHT22;63134;52.020;4.714;2023-04-03T17:45:07;27.00;18.10
22787;DHT22;63134;52.020;4.714;2023-04-03T17:47:54;25.90;18.80
22787;DHT22;63134;52.020;4.714;2023-04-03T17:50:40;24.60;19.70
22787;DHT22;63134;52.020;4.714;2023-04-03T17:53:25;23.90;20.70
22787;DHT22;63134;52.020;4.714;2023-04-03T17:56:34;23.40;21.20
22787;DHT22;63134;52.020;4.714;2023-04-03T17:59:22;22.50;22.10
22787;DHT22;63134;52.020;4.714;2023-04-03T18:02:07;21.80;22.90
22787;DHT22;63134;52.020;4.714;2023-04-03T18:04:53;21.10;23.70
22787;DHT22;63134;52.020;4.714;2023-04-03T18:07:39;20.40;24.60
22787;DHT22;63134;52.020;4.714;2023-04-03T18:10:25;19.40;25.70
22787;DHT22;63134;52.020;4.714;2023-04-03T18:13:11;18.10;27.20
22787;DHT22;63134;52.020;4.714;2023-04-03T18:15:57;16.80;28.70
22787;DHT22;63134;52.020;4.714;2023-04-03T18:18:43;15.90;30.00
22787;DHT22;63134;52.020;4.714;2023-04-03T18:21:28;15.20;31.60
22787;DHT22;63134;52.020;4.714;2023-04-03T18:24:16;14.50;33.00
22787;DHT22;63134;52.020;4.714;2023-04-03T18:27:24;13.90;34.50
22787;DHT22;63134;52.020;4.714;2023-04-03T18:30:12;13.30;35.80
22787;DHT22;63134;52.020;4.714;2023-04-03T18:32:58;12.80;36.70
22787;DHT22;63134;52.020;4.714;2023-04-03T18:35:44;12.40;37.60
22787;DHT22;63134;52.020;4.714;2023-04-03T18:38:30;12.00;38.50
22787;DHT22;63134;52.020;4.714;2023-04-03T18:41:15;11.70;39.60
22787;DHT22;63134;52.020;4.714;2023-04-03T18:44:04;11.40;40.10
22787;DHT22;63134;52.020;4.714;2023-04-03T18:46:52;11.10;40.80
22787;DHT22;63134;52.020;4.714;2023-04-03T18:49:40;10.80;41.50
22787;DHT22;63134;52.020;4.714;2023-04-03T18:52:26;10.60;42.10
22787;DHT22;63134;52.020;4.714;2023-04-03T18:55:11;10.30;42.70
22787;DHT22;63134;52.020;4.714;2023-04-03T18:57:58;10.10;43.30
22787;DHT22;63134;52.020;4.714;2023-04-03T19:00:43;9.90;43.90
22787;DHT22;63134;52.020;4.714;2023-04-03T19:03:29;9.70;44.40
22787;DHT22;63134;52.020;4.714;2023-04-03T19:06:16;9.50;45.00
22787;DHT22;63134;52.020;4.714;2023-04-03T19:09:03;9.30;45.50
22787;DHT22;63134;52.020;4.714;2023-04-03T19:11:49;9.20;45.80
22787;DHT22;63134;52.020;4.714;2023-04-03T19:14:35;9.00;46.30
22787;DHT22;63134;52.020;4.714;2023-04-03T19:17:20;8.90;46.60
22787;DHT22;63134;52.020;4.714;2023-04-03T19:20:08;8.70;46.90
22787;DHT22;63134;52.020;4.714;2023-04-03T19:22:54;8.60;47.40
22787;DHT22;63134;52.020;4.714;2023-04-03T19:25:39;8.50;47.70
22787;DHT22;63134;52.020;4.714;2023-04-03T19:28:25;8.40;48.10
22787;DHT22;63134;52.020;4.714;2023-04-03T19:31:13;8.30;48.40
22787;DHT22;63134;52.020;4.714;2023-04-03T19:34:00;8.20;48.80
22787;DHT22;63134;52.020;4.714;2023-04-03T19:36:46;8.10;49.00